Tropical Cyclones
[Index]
Main Index Home Page Stock Weather Photos Extreme Storms Discussion Storm News and Storm Chasing Reports Tropical Cyclones / Hurricanes / Typhoons Weather Data and Links Wild Fires / Bushfires Weather Observation Techniques Weather Picture Catalogue Tornado Pictures and Reports Stock Video Footage and DVDs for sale
Season 2009-2010 Tropical Cyclone CLEO Track Map
Season 2009-2010 Summaries (Operational Data): [AU] [SIO] [SPAC] [SH]
<<- Previous TC | 2009-2010 Season | Next TC ->>

click for intensity scale information  Lat/long Grid: Show Hide

 Date Labels: Show Hide

Operational Tropical Cyclone Data : JTWC Advisories

Name: CLEO
Number: 1003

06 Dec 2009 00:00 UTC to 14 Dec 2009 12:00 UTC

    date/time    lat    long     hPa   cat  kts
2009-12-06 00    8.5    84.8    1003         20          
2009-12-06 06    8.6    84.5    1002         25          
2009-12-06 12    8.8    83.4    1002         25          
2009-12-06 18    8.6    83.0    1002         25          
2009-12-07 00    8.7    82.1     999         25          
2009-12-07 06    8.9    80.5     998         30          
2009-12-07 12    9.2    79.6     994    1    40          
2009-12-07 18    9.5    78.4     987    1    45          
2009-12-08 00   10.3    77.4     980    2    55          
2009-12-08 06   10.7    76.4     947    4    90          
2009-12-08 12   11.1    75.5     927    4   105          
2009-12-08 18   11.3    75.0     935    4   105          
2009-12-09 00   11.5    74.1     947    3    85          
2009-12-09 06   12.0    73.3     970    3    70          
2009-12-09 12   12.2    72.7     980    2    60          
2009-12-09 18   12.2    71.4     980    2    55          
2009-12-10 00   12.5    71.0     984    2    50          
2009-12-10 06   13.4    70.5     984    2    50          
2009-12-10 12   13.8    69.9     986    2    50          
2009-12-10 18   14.4    68.9     988    1    45          
2009-12-11 00   14.2    68.7     992    1    40          
2009-12-11 06   13.9    67.7    1000         25          
2009-12-11 12   14.1    66.8    1002         25          
2009-12-11 18   14.3    66.0    1000         25          
2009-12-12 00   14.3    65.1     999         30          
2009-12-12 06   14.5    64.2    1000         25          
2009-12-12 12   14.4    63.3    1002         15          
2009-12-13 00   15.0    62.1                             
2009-12-13 06   14.9    61.9    1000         25          
2009-12-13 12   15.9    61.9    1000         25          
2009-12-14 00   17.7    61.7                             
2009-12-14 06   17.6    60.7    1004         25          
2009-12-14 12   18.7    60.9    1005         20          
Winds are 10-min average.

Tropical cyclone tracks developed by Michael Bath using operational warnings and advisories and Google Maps.


[Australian Severe Weather index] [Copyright Notice] [Email Contacts] [Search This Site] [Privacy Policy]
Document: tropical_cyclone_cleo.htm Updated: 28 May 2013